Decoded Metar for KDCM ( in _UNIDENTIFIED) (IATA:) | Meteo·Mobile Aviation Weather
aviador You're here:

KDCM Decoded Metar

in _UNIDENTIFIED
Report Time2019-07-22 16:15:00
UTC Time2019-07-22 16:14:47
Flight Rules vfr VFR
WindCalm
Visibility9999 m
Phenomena:N/A
Clouds:N/A
Expected CloudBase > 4,000 ft AGL from Temp-Dew spread
CeilingNone
Temp30°C (ISA +16)
Dew Point20°C (55% RH)
Heat Index31.9°C
QNH1017 hPa
Density Alt2,700 ft
Elevation656 ft
Report Wrong Elevation
Raw Report
METAR KDCM 221615Z AUTO 00000KT 7SM CLR 30/20 A3002 RMK AO2 LTG DSNT
SE AND NW=

Extra information for KDCM:More info

Metar Taf Metar & Taf Last 4 Metars F.Rules Stats Wind Profile Meteogram Temp Stats Metar ALERT Operation Metar Decoded Social comments